sensor_id;sensor_type;location;lat;lon;timestamp;temperature;humidity
7564;DHT22;3823;53.586;10.040;2023-02-17T00:01:59;8.50;1.00
7564;DHT22;3823;53.586;10.040;2023-02-17T00:04:27;8.50;1.00
7564;DHT22;3823;53.586;10.040;2023-02-17T00:06:54;8.50;1.00
7564;DHT22;3823;53.586;10.040;2023-02-17T00:09:19;8.50;1.00
7564;DHT22;3823;53.586;10.040;2023-02-17T00:11:45;8.50;1.00
7564;DHT22;3823;53.586;10.040;2023-02-17T00:14:11;8.50;1.00
7564;DHT22;3823;53.586;10.040;2023-02-17T00:16:38;8.50;1.00
7564;DHT22;3823;53.586;10.040;2023-02-17T00:19:04;8.70;1.00
7564;DHT22;3823;53.586;10.040;2023-02-17T00:21:48;8.60;1.00
7564;DHT22;3823;53.586;10.040;2023-02-17T00:24:14;8.60;1.00
7564;DHT22;3823;53.586;10.040;2023-02-17T00:26:39;8.60;1.00
7564;DHT22;3823;53.586;10.040;2023-02-17T00:29:05;8.50;1.00
7564;DHT22;3823;53.586;10.040;2023-02-17T00:31:31;8.50;1.00
7564;DHT22;3823;53.586;10.040;2023-02-17T00:33:56;8.60;1.00
7564;DHT22;3823;53.586;10.040;2023-02-17T00:36:22;8.60;1.00
7564;DHT22;3823;53.586;10.040;2023-02-17T00:38:49;8.60;1.00
7564;DHT22;3823;53.586;10.040;2023-02-17T00:41:16;8.60;1.00
7564;DHT22;3823;53.586;10.040;2023-02-17T00:43:42;8.60;1.00
7564;DHT22;3823;53.586;10.040;2023-02-17T00:46:08;8.60;1.00
7564;DHT22;3823;53.586;10.040;2023-02-17T00:48:33;8.60;1.00
7564;DHT22;3823;53.586;10.040;2023-02-17T00:50:59;8.60;1.00
7564;DHT22;3823;53.586;10.040;2023-02-17T00:53:25;8.60;1.00
7564;DHT22;3823;53.586;10.040;2023-02-17T00:55:50;8.60;1.00
7564;DHT22;3823;53.586;10.040;2023-02-17T00:58:16;8.60;1.00
7564;DHT22;3823;53.586;10.040;2023-02-17T01:00:41;8.60;1.00
7564;DHT22;3823;53.586;10.040;2023-02-17T01:03:07;8.60;1.00
7564;DHT22;3823;53.586;10.040;2023-02-17T01:05:33;8.60;1.00
7564;DHT22;3823;53.586;10.040;2023-02-17T01:07:59;8.60;1.00
7564;DHT22;3823;53.586;10.040;2023-02-17T01:10:24;8.70;1.30
7564;DHT22;3823;53.586;10.040;2023-02-17T01:12:50;8.70;1.00
7564;DHT22;3823;53.586;10.040;2023-02-17T01:15:15;8.70;1.00
7564;DHT22;3823;53.586;10.040;2023-02-17T01:17:41;8.70;1.00
7564;DHT22;3823;53.586;10.040;2023-02-17T01:20:07;8.60;1.00
7564;DHT22;3823;53.586;10.040;2023-02-17T01:22:33;8.60;1.00
7564;DHT22;3823;53.586;10.040;2023-02-17T01:24:59;8.70;1.00
7564;DHT22;3823;53.586;10.040;2023-02-17T01:27:24;8.80;1.30
7564;DHT22;3823;53.586;10.040;2023-02-17T01:29:50;8.70;1.60
7564;DHT22;3823;53.586;10.040;2023-02-17T01:32:16;8.70;1.40
7564;DHT22;3823;53.586;10.040;2023-02-17T01:34:41;8.70;1.50
7564;DHT22;3823;53.586;10.040;2023-02-17T01:37:07;8.60;1.40
7564;DHT22;3823;53.586;10.040;2023-02-17T01:39:32;8.70;1.30
7564;DHT22;3823;53.586;10.040;2023-02-17T01:41:58;8.70;1.60
7564;DHT22;3823;53.586;10.040;2023-02-17T01:44:24;8.80;1.80
7564;DHT22;3823;53.586;10.040;2023-02-17T01:46:53;8.80;1.70
7564;DHT22;3823;53.586;10.040;2023-02-17T01:49:39;8.80;2.30
7564;DHT22;3823;53.586;10.040;2023-02-17T01:52:10;8.80;2.50
7564;DHT22;3823;53.586;10.040;2023-02-17T01:54:41;8.80;2.30
7564;DHT22;3823;53.586;10.040;2023-02-17T01:57:10;8.80;2.40
7564;DHT22;3823;53.586;10.040;2023-02-17T01:59:37;8.80;2.60
7564;DHT22;3823;53.586;10.040;2023-02-17T02:02:04;8.80;2.50
7564;DHT22;3823;53.586;10.040;2023-02-17T02:04:33;8.80;2.30
7564;DHT22;3823;53.586;10.040;2023-02-17T02:07:01;8.80;2.20
7564;DHT22;3823;53.586;10.040;2023-02-17T02:09:35;8.90;3.10
7564;DHT22;3823;53.586;10.040;2023-02-17T02:12:01;8.90;2.90
7564;DHT22;3823;53.586;10.040;2023-02-17T02:14:27;8.80;2.90
7564;DHT22;3823;53.586;10.040;2023-02-17T02:17:05;8.90;2.90
7564;DHT22;3823;53.586;10.040;2023-02-17T02:30:57;9.00;3.70
7564;DHT22;3823;53.586;10.040;2023-02-17T02:33:45;9.00;4.20
7564;DHT22;3823;53.586;10.040;2023-02-17T02:36:16;8.90;4.40
7564;DHT22;3823;53.586;10.040;2023-02-17T02:41:22;9.00;4.00
7564;DHT22;3823;53.586;10.040;2023-02-17T02:43:50;9.00;3.90
7564;DHT22;3823;53.586;10.040;2023-02-17T02:46:16;9.00;3.80
7564;DHT22;3823;53.586;10.040;2023-02-17T02:48:41;9.00;4.10
7564;DHT22;3823;53.586;10.040;2023-02-17T03:05:31;9.00;4.70
7564;DHT22;3823;53.586;10.040;2023-02-17T03:08:13;9.00;4.50
7564;DHT22;3823;53.586;10.040;2023-02-17T03:10:48;9.20;4.20
7564;DHT22;3823;53.586;10.040;2023-02-17T03:13:15;9.10;5.00
7564;DHT22;3823;53.586;10.040;2023-02-17T03:15:41;9.10;5.20
7564;DHT22;3823;53.586;10.040;2023-02-17T03:18:07;9.10;5.30
7564;DHT22;3823;53.586;10.040;2023-02-17T03:20:55;9.10;5.20
7564;DHT22;3823;53.586;10.040;2023-02-17T03:23:21;9.10;5.10
7564;DHT22;3823;53.586;10.040;2023-02-17T03:25:47;9.10;5.10
7564;DHT22;3823;53.586;10.040;2023-02-17T03:28:14;9.10;5.30
7564;DHT22;3823;53.586;10.040;2023-02-17T03:30:39;9.10;5.10
7564;DHT22;3823;53.586;10.040;2023-02-17T03:33:05;9.10;4.80
7564;DHT22;3823;53.586;10.040;2023-02-17T03:35:31;9.10;4.70
7564;DHT22;3823;53.586;10.040;2023-02-17T03:37:57;9.20;4.90
7564;DHT22;3823;53.586;10.040;2023-02-17T03:40:22;9.20;5.00
7564;DHT22;3823;53.586;10.040;2023-02-17T03:42:48;9.20;5.00
7564;DHT22;3823;53.586;10.040;2023-02-17T03:45:13;9.10;5.30
7564;DHT22;3823;53.586;10.040;2023-02-17T03:47:39;9.10;5.10
7564;DHT22;3823;53.586;10.040;2023-02-17T03:50:05;9.20;4.90
7564;DHT22;3823;53.586;10.040;2023-02-17T03:52:31;9.20;4.80
7564;DHT22;3823;53.586;10.040;2023-02-17T03:54:56;9.20;5.20
7564;DHT22;3823;53.586;10.040;2023-02-17T03:57:22;9.20;5.60
7564;DHT22;3823;53.586;10.040;2023-02-17T03:59:47;9.20;5.70
7564;DHT22;3823;53.586;10.040;2023-02-17T04:02:13;9.20;5.90
7564;DHT22;3823;53.586;10.040;2023-02-17T04:04:39;9.20;6.40
7564;DHT22;3823;53.586;10.040;2023-02-17T04:07:04;9.20;6.70
7564;DHT22;3823;53.586;10.040;2023-02-17T04:09:30;9.20;6.70
7564;DHT22;3823;53.586;10.040;2023-02-17T04:11:55;9.20;6.80
7564;DHT22;3823;53.586;10.040;2023-02-17T04:14:21;9.20;6.60
7564;DHT22;3823;53.586;10.040;2023-02-17T04:16:46;9.30;7.10
7564;DHT22;3823;53.586;10.040;2023-02-17T04:19:12;9.30;7.50
7564;DHT22;3823;53.586;10.040;2023-02-17T04:21:38;9.30;8.00
7564;DHT22;3823;53.586;10.040;2023-02-17T04:24:04;9.30;8.10
7564;DHT22;3823;53.586;10.040;2023-02-17T04:26:29;9.30;8.10
7564;DHT22;3823;53.586;10.040;2023-02-17T04:28:55;9.30;8.10
7564;DHT22;3823;53.586;10.040;2023-02-17T04:31:21;9.30;8.20
7564;DHT22;3823;53.586;10.040;2023-02-17T04:33:47;9.30;8.60
7564;DHT22;3823;53.586;10.040;2023-02-17T04:36:13;9.30;8.70
7564;DHT22;3823;53.586;10.040;2023-02-17T04:38:38;9.40;8.60
7564;DHT22;3823;53.586;10.040;2023-02-17T04:41:05;9.40;8.80
7564;DHT22;3823;53.586;10.040;2023-02-17T04:43:32;9.40;9.00
7564;DHT22;3823;53.586;10.040;2023-02-17T04:45:58;9.40;9.00
7564;DHT22;3823;53.586;10.040;2023-02-17T04:48:24;9.40;9.10
7564;DHT22;3823;53.586;10.040;2023-02-17T04:50:50;9.40;9.90
7564;DHT22;3823;53.586;10.040;2023-02-17T04:53:16;9.50;9.50
7564;DHT22;3823;53.586;10.040;2023-02-17T04:55:42;9.50;9.60
7564;DHT22;3823;53.586;10.040;2023-02-17T04:58:08;9.50;9.30
7564;DHT22;3823;53.586;10.040;2023-02-17T05:00:34;9.50;9.10
7564;DHT22;3823;53.586;10.040;2023-02-17T05:03:00;9.50;9.20
7564;DHT22;3823;53.586;10.040;2023-02-17T05:05:25;9.50;9.10
7564;DHT22;3823;53.586;10.040;2023-02-17T05:07:51;9.50;9.00
7564;DHT22;3823;53.586;10.040;2023-02-17T05:10:17;9.50;8.80
7564;DHT22;3823;53.586;10.040;2023-02-17T05:12:43;9.60;9.20
7564;DHT22;3823;53.586;10.040;2023-02-17T05:15:09;9.60;9.00
7564;DHT22;3823;53.586;10.040;2023-02-17T05:17:35;9.60;8.50
7564;DHT22;3823;53.586;10.040;2023-02-17T05:20:01;9.60;8.40
7564;DHT22;3823;53.586;10.040;2023-02-17T05:22:27;9.60;8.30
7564;DHT22;3823;53.586;10.040;2023-02-17T05:24:53;9.50;7.80
7564;DHT22;3823;53.586;10.040;2023-02-17T05:27:18;9.60;8.20
7564;DHT22;3823;53.586;10.040;2023-02-17T05:29:44;9.60;8.30
7564;DHT22;3823;53.586;10.040;2023-02-17T05:32:10;9.60;8.90
7564;DHT22;3823;53.586;10.040;2023-02-17T05:34:35;9.60;8.40
7564;DHT22;3823;53.586;10.040;2023-02-17T05:37:01;9.60;8.30
7564;DHT22;3823;53.586;10.040;2023-02-17T05:39:27;9.60;8.30
7564;DHT22;3823;53.586;10.040;2023-02-17T05:41:53;9.50;8.60
7564;DHT22;3823;53.586;10.040;2023-02-17T05:44:18;9.60;8.80
7564;DHT22;3823;53.586;10.040;2023-02-17T05:46:44;9.60;8.80
7564;DHT22;3823;53.586;10.040;2023-02-17T05:49:10;9.60;9.30
7564;DHT22;3823;53.586;10.040;2023-02-17T05:51:35;9.60;9.30
7564;DHT22;3823;53.586;10.040;2023-02-17T05:54:01;9.70;9.60
7564;DHT22;3823;53.586;10.040;2023-02-17T05:56:27;9.60;9.00
7564;DHT22;3823;53.586;10.040;2023-02-17T05:58:52;9.70;9.30
7564;DHT22;3823;53.586;10.040;2023-02-17T06:01:18;9.60;8.80
7564;DHT22;3823;53.586;10.040;2023-02-17T06:03:43;9.60;8.60
7564;DHT22;3823;53.586;10.040;2023-02-17T06:06:09;9.60;8.60
7564;DHT22;3823;53.586;10.040;2023-02-17T06:08:35;9.60;9.00
7564;DHT22;3823;53.586;10.040;2023-02-17T06:11:01;9.60;9.00
7564;DHT22;3823;53.586;10.040;2023-02-17T06:13:26;9.70;9.30
7564;DHT22;3823;53.586;10.040;2023-02-17T06:15:52;9.70;8.70
7564;DHT22;3823;53.586;10.040;2023-02-17T06:18:18;9.60;8.70
7564;DHT22;3823;53.586;10.040;2023-02-17T06:20:44;9.60;7.80
7564;DHT22;3823;53.586;10.040;2023-02-17T06:23:09;9.70;8.00
7564;DHT22;3823;53.586;10.040;2023-02-17T06:25:36;9.70;8.30
7564;DHT22;3823;53.586;10.040;2023-02-17T06:28:02;9.70;7.40
7564;DHT22;3823;53.586;10.040;2023-02-17T06:30:27;9.70;7.00
7564;DHT22;3823;53.586;10.040;2023-02-17T06:32:53;9.70;8.20
7564;DHT22;3823;53.586;10.040;2023-02-17T06:35:18;9.70;7.20
7564;DHT22;3823;53.586;10.040;2023-02-17T06:37:44;9.70;7.10
7564;DHT22;3823;53.586;10.040;2023-02-17T06:40:10;9.70;7.80
7564;DHT22;3823;53.586;10.040;2023-02-17T06:42:36;9.70;7.70
7564;DHT22;3823;53.586;10.040;2023-02-17T06:45:01;9.70;7.50
7564;DHT22;3823;53.586;10.040;2023-02-17T06:47:31;9.70;7.40
7564;DHT22;3823;53.586;10.040;2023-02-17T06:49:56;9.70;7.30
7564;DHT22;3823;53.586;10.040;2023-02-17T06:52:22;9.80;6.70
7564;DHT22;3823;53.586;10.040;2023-02-17T06:54:47;9.80;5.10
7564;DHT22;3823;53.586;10.040;2023-02-17T06:57:13;9.70;4.60
7564;DHT22;3823;53.586;10.040;2023-02-17T06:59:38;9.70;4.20
7564;DHT22;3823;53.586;10.040;2023-02-17T07:02:04;9.70;4.40
7564;DHT22;3823;53.586;10.040;2023-02-17T07:04:30;9.70;3.60
7564;DHT22;3823;53.586;10.040;2023-02-17T07:06:56;9.70;3.50
7564;DHT22;3823;53.586;10.040;2023-02-17T07:09:22;9.80;3.00
7564;DHT22;3823;53.586;10.040;2023-02-17T07:11:47;9.80;1.40
7564;DHT22;3823;53.586;10.040;2023-02-17T07:14:15;9.80;1.00
7564;DHT22;3823;53.586;10.040;2023-02-17T07:16:41;9.80;1.00
7564;DHT22;3823;53.586;10.040;2023-02-17T07:19:06;9.80;1.00
7564;DHT22;3823;53.586;10.040;2023-02-17T07:21:32;9.80;1.00
7564;DHT22;3823;53.586;10.040;2023-02-17T07:23:57;9.70;1.00
7564;DHT22;3823;53.586;10.040;2023-02-17T07:26:23;9.70;1.00
7564;DHT22;3823;53.586;10.040;2023-02-17T07:28:48;9.70;1.40
7564;DHT22;3823;53.586;10.040;2023-02-17T07:31:16;9.80;1.70
7564;DHT22;3823;53.586;10.040;2023-02-17T07:33:42;9.80;1.00
7564;DHT22;3823;53.586;10.040;2023-02-17T07:36:11;9.80;1.00
7564;DHT22;3823;53.586;10.040;2023-02-17T07:38:38;9.80;1.00
7564;DHT22;3823;53.586;10.040;2023-02-17T07:41:12;9.80;1.00
7564;DHT22;3823;53.586;10.040;2023-02-17T07:43:38;9.80;1.00
7564;DHT22;3823;53.586;10.040;2023-02-17T07:46:06;9.80;1.00
7564;DHT22;3823;53.586;10.040;2023-02-17T07:48:32;9.80;1.00
7564;DHT22;3823;53.586;10.040;2023-02-17T07:51:06;9.80;1.00
7564;DHT22;3823;53.586;10.040;2023-02-17T07:53:33;9.80;1.00
7564;DHT22;3823;53.586;10.040;2023-02-17T07:56:01;9.90;1.00
7564;DHT22;3823;53.586;10.040;2023-02-17T07:58:27;9.90;1.00
7564;DHT22;3823;53.586;10.040;2023-02-17T08:00:52;9.80;1.00
7564;DHT22;3823;53.586;10.040;2023-02-17T08:03:18;9.90;1.00
7564;DHT22;3823;53.586;10.040;2023-02-17T08:05:43;9.90;1.00
7564;DHT22;3823;53.586;10.040;2023-02-17T08:08:09;9.90;1.00
7564;DHT22;3823;53.586;10.040;2023-02-17T08:10:53;9.80;1.00
7564;DHT22;3823;53.586;10.040;2023-02-17T08:13:37;9.80;1.00
7564;DHT22;3823;53.586;10.040;2023-02-17T08:16:03;9.90;1.00
7564;DHT22;3823;53.586;10.040;2023-02-17T08:18:29;9.90;1.00
7564;DHT22;3823;53.586;10.040;2023-02-17T08:20:54;9.80;1.00
7564;DHT22;3823;53.586;10.040;2023-02-17T08:23:20;9.80;1.00
7564;DHT22;3823;53.586;10.040;2023-02-17T08:25:46;9.80;1.00
7564;DHT22;3823;53.586;10.040;2023-02-17T08:28:11;9.80;1.00
7564;DHT22;3823;53.586;10.040;2023-02-17T08:30:38;9.80;1.00
7564;DHT22;3823;53.586;10.040;2023-02-17T08:33:05;9.80;1.00
7564;DHT22;3823;53.586;10.040;2023-02-17T08:35:31;9.90;1.00
7564;DHT22;3823;53.586;10.040;2023-02-17T08:37:56;9.90;1.00
7564;DHT22;3823;53.586;10.040;2023-02-17T08:40:23;9.90;1.00
7564;DHT22;3823;53.586;10.040;2023-02-17T08:42:48;9.90;1.00
7564;DHT22;3823;53.586;10.040;2023-02-17T08:45:15;9.90;1.00
7564;DHT22;3823;53.586;10.040;2023-02-17T08:47:41;9.90;1.00
7564;DHT22;3823;53.586;10.040;2023-02-17T08:50:08;9.90;1.00
7564;DHT22;3823;53.586;10.040;2023-02-17T08:52:35;9.80;1.00
7564;DHT22;3823;53.586;10.040;2023-02-17T08:55:00;9.80;1.00
7564;DHT22;3823;53.586;10.040;2023-02-17T08:57:26;9.80;1.00
7564;DHT22;3823;53.586;10.040;2023-02-17T08:59:52;9.80;1.00
7564;DHT22;3823;53.586;10.040;2023-02-17T09:02:18;9.80;1.00
7564;DHT22;3823;53.586;10.040;2023-02-17T09:04:44;9.90;1.00
7564;DHT22;3823;53.586;10.040;2023-02-17T09:07:12;9.80;1.00
7564;DHT22;3823;53.586;10.040;2023-02-17T09:09:38;9.80;1.00
7564;DHT22;3823;53.586;10.040;2023-02-17T09:12:04;9.80;1.00
7564;DHT22;3823;53.586;10.040;2023-02-17T09:14:30;9.80;1.00
7564;DHT22;3823;53.586;10.040;2023-02-17T09:16:55;9.80;1.00
7564;DHT22;3823;53.586;10.040;2023-02-17T09:19:22;9.90;1.00
7564;DHT22;3823;53.586;10.040;2023-02-17T09:21:47;9.80;1.00
7564;DHT22;3823;53.586;10.040;2023-02-17T09:24:14;9.80;1.90
7564;DHT22;3823;53.586;10.040;2023-02-17T09:26:40;9.80;3.10
7564;DHT22;3823;53.586;10.040;2023-02-17T09:29:06;9.90;3.60
7564;DHT22;3823;53.586;10.040;2023-02-17T09:31:33;9.90;2.60
7564;DHT22;3823;53.586;10.040;2023-02-17T09:34:00;9.80;2.50
7564;DHT22;3823;53.586;10.040;2023-02-17T09:36:32;9.90;2.70
7564;DHT22;3823;53.586;10.040;2023-02-17T09:38:58;9.90;3.40
7564;DHT22;3823;53.586;10.040;2023-02-17T09:41:45;9.90;3.70
7564;DHT22;3823;53.586;10.040;2023-02-17T09:44:30;9.90;3.70
7564;DHT22;3823;53.586;10.040;2023-02-17T09:47:08;9.90;3.10
7564;DHT22;3823;53.586;10.040;2023-02-17T09:49:40;9.90;4.20
7564;DHT22;3823;53.586;10.040;2023-02-17T09:52:12;9.90;4.40
7564;DHT22;3823;53.586;10.040;2023-02-17T09:57:21;9.90;6.30
7564;DHT22;3823;53.586;10.040;2023-02-17T09:59:56;9.90;6.80
7564;DHT22;3823;53.586;10.040;2023-02-17T10:05:15;10.00;7.50
7564;DHT22;3823;53.586;10.040;2023-02-17T10:07:55;10.00;7.20
7564;DHT22;3823;53.586;10.040;2023-02-17T10:10:37;10.00;7.40
7564;DHT22;3823;53.586;10.040;2023-02-17T10:13:05;10.00;7.90
7564;DHT22;3823;53.586;10.040;2023-02-17T10:15:37;10.00;8.50
7564;DHT22;3823;53.586;10.040;2023-02-17T10:20:35;10.10;9.00
7564;DHT22;3823;53.586;10.040;2023-02-17T10:23:25;10.10;8.70
7564;DHT22;3823;53.586;10.040;2023-02-17T10:28:21;10.20;9.70
7564;DHT22;3823;53.586;10.040;2023-02-17T10:31:02;10.20;8.80
7564;DHT22;3823;53.586;10.040;2023-02-17T10:33:37;10.20;8.40
7564;DHT22;3823;53.586;10.040;2023-02-17T10:36:11;10.20;8.80
7564;DHT22;3823;53.586;10.040;2023-02-17T10:41:37;10.20;8.50
7564;DHT22;3823;53.586;10.040;2023-02-17T10:44:16;10.20;9.00
7564;DHT22;3823;53.586;10.040;2023-02-17T10:46:44;10.20;9.70
7564;DHT22;3823;53.586;10.040;2023-02-17T10:49:24;10.30;10.00
7564;DHT22;3823;53.586;10.040;2023-02-17T10:51:54;10.30;10.00
7564;DHT22;3823;53.586;10.040;2023-02-17T10:54:36;10.30;9.90
7564;DHT22;3823;53.586;10.040;2023-02-17T10:57:06;10.30;10.20
7564;DHT22;3823;53.586;10.040;2023-02-17T10:59:39;10.30;10.30
7564;DHT22;3823;53.586;10.040;2023-02-17T11:02:24;10.30;10.40
7564;DHT22;3823;53.586;10.040;2023-02-17T11:04:55;10.30;10.60
7564;DHT22;3823;53.586;10.040;2023-02-17T11:10:00;10.30;11.00
7564;DHT22;3823;53.586;10.040;2023-02-17T11:12:38;10.40;10.90
7564;DHT22;3823;53.586;10.040;2023-02-17T11:15:14;10.40;10.70
7564;DHT22;3823;53.586;10.040;2023-02-17T11:17:40;10.40;10.30
7564;DHT22;3823;53.586;10.040;2023-02-17T11:20:29;10.40;10.70
7564;DHT22;3823;53.586;10.040;2023-02-17T11:23:05;10.40;10.70
7564;DHT22;3823;53.586;10.040;2023-02-17T11:25:33;10.50;10.00
7564;DHT22;3823;53.586;10.040;2023-02-17T11:28:04;10.50;9.60
7564;DHT22;3823;53.586;10.040;2023-02-17T11:30:32;10.50;9.30
7564;DHT22;3823;53.586;10.040;2023-02-17T11:32:58;10.50;8.70
7564;DHT22;3823;53.586;10.040;2023-02-17T11:35:48;10.40;9.30
7564;DHT22;3823;53.586;10.040;2023-02-17T11:38:20;10.50;8.80
7564;DHT22;3823;53.586;10.040;2023-02-17T11:41:00;10.50;8.20
7564;DHT22;3823;53.586;10.040;2023-02-17T11:43:27;10.50;8.40
7564;DHT22;3823;53.586;10.040;2023-02-17T11:48:52;10.50;8.90
7564;DHT22;3823;53.586;10.040;2023-02-17T11:51:29;10.50;8.50
7564;DHT22;3823;53.586;10.040;2023-02-17T11:56:38;10.50;7.30
7564;DHT22;3823;53.586;10.040;2023-02-17T12:02:02;10.60;7.90
7564;DHT22;3823;53.586;10.040;2023-02-17T12:04:47;10.60;8.10
7564;DHT22;3823;53.586;10.040;2023-02-17T12:10:04;10.60;8.70
7564;DHT22;3823;53.586;10.040;2023-02-17T12:15:43;10.60;8.70
7564;DHT22;3823;53.586;10.040;2023-02-17T12:18:40;10.60;9.40
7564;DHT22;3823;53.586;10.040;2023-02-17T12:24:17;10.60;11.10
7564;DHT22;3823;53.586;10.040;2023-02-17T12:26:49;10.60;12.20
7564;DHT22;3823;53.586;10.040;2023-02-17T12:29:29;10.60;12.50
7564;DHT22;3823;53.586;10.040;2023-02-17T12:32:19;10.60;12.60
7564;DHT22;3823;53.586;10.040;2023-02-17T12:37:22;10.70;13.10
7564;DHT22;3823;53.586;10.040;2023-02-17T12:39:55;10.70;12.90
7564;DHT22;3823;53.586;10.040;2023-02-17T12:45:01;10.70;12.70
7564;DHT22;3823;53.586;10.040;2023-02-17T12:50:21;10.70;12.70
7564;DHT22;3823;53.586;10.040;2023-02-17T12:52:53;10.70;13.00
7564;DHT22;3823;53.586;10.040;2023-02-17T12:55:24;10.70;12.90
7564;DHT22;3823;53.586;10.040;2023-02-17T12:58:11;10.80;13.50
7564;DHT22;3823;53.586;10.040;2023-02-17T13:00:41;10.80;13.10
7564;DHT22;3823;53.586;10.040;2023-02-17T13:03:08;10.70;12.90
7564;DHT22;3823;53.586;10.040;2023-02-17T13:05:42;10.70;13.00
7564;DHT22;3823;53.586;10.040;2023-02-17T13:08:15;10.70;13.00
7564;DHT22;3823;53.586;10.040;2023-02-17T13:10:43;10.70;13.20
7564;DHT22;3823;53.586;10.040;2023-02-17T13:13:12;10.70;13.00
7564;DHT22;3823;53.586;10.040;2023-02-17T13:15:44;10.80;13.70
7564;DHT22;3823;53.586;10.040;2023-02-17T13:21:25;10.80;13.00
7564;DHT22;3823;53.586;10.040;2023-02-17T13:24:03;10.80;12.90
7564;DHT22;3823;53.586;10.040;2023-02-17T13:26:34;10.80;12.40
7564;DHT22;3823;53.586;10.040;2023-02-17T13:35:02;10.80;10.60
7564;DHT22;3823;53.586;10.040;2023-02-17T13:37:41;10.80;10.30
7564;DHT22;3823;53.586;10.040;2023-02-17T13:42:55;10.90;8.30
7564;DHT22;3823;53.586;10.040;2023-02-17T13:45:48;10.90;5.20
7564;DHT22;3823;53.586;10.040;2023-02-17T13:50:48;11.00;1.00
7564;DHT22;3823;53.586;10.040;2023-02-17T13:53:34;11.00;1.00
7564;DHT22;3823;53.586;10.040;2023-02-17T13:56:09;11.00;1.00
7564;DHT22;3823;53.586;10.040;2023-02-17T13:58:38;11.00;1.00
7564;DHT22;3823;53.586;10.040;2023-02-17T14:01:06;11.00;1.00
7564;DHT22;3823;53.586;10.040;2023-02-17T14:06:04;11.00;1.00
7564;DHT22;3823;53.586;10.040;2023-02-17T14:08:41;11.00;1.00
7564;DHT22;3823;53.586;10.040;2023-02-17T14:11:25;11.10;1.00
7564;DHT22;3823;53.586;10.040;2023-02-17T14:13:54;11.10;1.00
7564;DHT22;3823;53.586;10.040;2023-02-17T14:16:27;11.10;1.00
7564;DHT22;3823;53.586;10.040;2023-02-17T14:19:05;11.10;1.00
7564;DHT22;3823;53.586;10.040;2023-02-17T14:21:31;11.10;1.00
7564;DHT22;3823;53.586;10.040;2023-02-17T14:23:58;11.20;1.00
7564;DHT22;3823;53.586;10.040;2023-02-17T14:26:43;11.20;1.00
7564;DHT22;3823;53.586;10.040;2023-02-17T14:29:12;11.20;1.00
7564;DHT22;3823;53.586;10.040;2023-02-17T14:31:50;11.20;1.00
7564;DHT22;3823;53.586;10.040;2023-02-17T14:34:28;11.20;1.00
7564;DHT22;3823;53.586;10.040;2023-02-17T14:37:05;11.30;1.00
7564;DHT22;3823;53.586;10.040;2023-02-17T14:39:31;11.30;1.00
7564;DHT22;3823;53.586;10.040;2023-02-17T14:41:56;11.30;1.00
7564;DHT22;3823;53.586;10.040;2023-02-17T14:44:22;11.30;1.00
7564;DHT22;3823;53.586;10.040;2023-02-17T14:46:47;11.20;1.00
7564;DHT22;3823;53.586;10.040;2023-02-17T14:49:13;11.20;99.90
7564;DHT22;3823;53.586;10.040;2023-02-17T14:51:38;11.20;99.90
7564;DHT22;3823;53.586;10.040;2023-02-17T14:54:13;11.20;1.00
7564;DHT22;3823;53.586;10.040;2023-02-17T14:56:43;11.10;99.90
7564;DHT22;3823;53.586;10.040;2023-02-17T14:59:10;11.10;99.90
7564;DHT22;3823;53.586;10.040;2023-02-17T15:01:36;11.20;99.90
7564;DHT22;3823;53.586;10.040;2023-02-17T15:04:01;11.10;99.90
7564;DHT22;3823;53.586;10.040;2023-02-17T15:06:42;11.10;99.90
7564;DHT22;3823;53.586;10.040;2023-02-17T15:09:12;11.00;99.90
7564;DHT22;3823;53.586;10.040;2023-02-17T15:11:39;11.00;99.90
7564;DHT22;3823;53.586;10.040;2023-02-17T15:14:11;11.00;99.90
7564;DHT22;3823;53.586;10.040;2023-02-17T15:16:38;11.00;99.90
7564;DHT22;3823;53.586;10.040;2023-02-17T15:19:03;10.90;99.90
7564;DHT22;3823;53.586;10.040;2023-02-17T15:21:31;10.90;99.90
7564;DHT22;3823;53.586;10.040;2023-02-17T15:23:59;10.90;99.90
7564;DHT22;3823;53.586;10.040;2023-02-17T15:26:26;10.90;99.90
7564;DHT22;3823;53.586;10.040;2023-02-17T15:28:52;10.80;99.90
7564;DHT22;3823;53.586;10.040;2023-02-17T15:31:19;10.80;99.90
7564;DHT22;3823;53.586;10.040;2023-02-17T15:33:55;10.80;99.90
7564;DHT22;3823;53.586;10.040;2023-02-17T15:36:24;10.80;99.90
7564;DHT22;3823;53.586;10.040;2023-02-17T15:38:50;10.80;99.90
7564;DHT22;3823;53.586;10.040;2023-02-17T15:41:21;10.60;99.90
7564;DHT22;3823;53.586;10.040;2023-02-17T15:43:49;10.60;99.90
7564;DHT22;3823;53.586;10.040;2023-02-17T15:46:17;10.60;99.90
7564;DHT22;3823;53.586;10.040;2023-02-17T15:48:44;10.50;99.90
7564;DHT22;3823;53.586;10.040;2023-02-17T15:51:11;10.40;99.90
7564;DHT22;3823;53.586;10.040;2023-02-17T15:53:37;10.40;99.90
7564;DHT22;3823;53.586;10.040;2023-02-17T15:56:07;10.30;99.90
7564;DHT22;3823;53.586;10.040;2023-02-17T15:58:34;10.30;99.90
7564;DHT22;3823;53.586;10.040;2023-02-17T16:01:01;10.30;99.90
7564;DHT22;3823;53.586;10.040;2023-02-17T16:03:28;10.30;99.90
7564;DHT22;3823;53.586;10.040;2023-02-17T16:05:54;10.20;99.90
7564;DHT22;3823;53.586;10.040;2023-02-17T16:08:19;10.20;99.90
7564;DHT22;3823;53.586;10.040;2023-02-17T16:10:45;10.20;99.90
7564;DHT22;3823;53.586;10.040;2023-02-17T16:13:15;10.20;97.30
7564;DHT22;3823;53.586;10.040;2023-02-17T16:15:42;10.10;48.70
7564;DHT22;3823;53.586;10.040;2023-02-17T16:18:19;10.10;37.30
7564;DHT22;3823;53.586;10.040;2023-02-17T16:20:46;10.00;39.30
7564;DHT22;3823;53.586;10.040;2023-02-17T16:23:11;9.90;23.70
7564;DHT22;3823;53.586;10.040;2023-02-17T16:25:37;9.90;10.40
7564;DHT22;3823;53.586;10.040;2023-02-17T16:28:04;9.80;1.00
7564;DHT22;3823;53.586;10.040;2023-02-17T16:30:32;9.80;14.90
7564;DHT22;3823;53.586;10.040;2023-02-17T16:32:59;9.80;9.00
7564;DHT22;3823;53.586;10.040;2023-02-17T16:35:28;9.80;1.00
7564;DHT22;3823;53.586;10.040;2023-02-17T16:37:59;9.80;1.00
7564;DHT22;3823;53.586;10.040;2023-02-17T16:40:28;9.80;1.00
7564;DHT22;3823;53.586;10.040;2023-02-17T16:42:54;9.70;1.00
7564;DHT22;3823;53.586;10.040;2023-02-17T16:45:23;9.60;1.00
7564;DHT22;3823;53.586;10.040;2023-02-17T16:47:51;9.60;1.00
7564;DHT22;3823;53.586;10.040;2023-02-17T16:50:25;9.60;1.00
7564;DHT22;3823;53.586;10.040;2023-02-17T16:52:53;9.60;1.00
7564;DHT22;3823;53.586;10.040;2023-02-17T16:55:21;9.60;1.00
7564;DHT22;3823;53.586;10.040;2023-02-17T16:57:47;9.60;1.00
7564;DHT22;3823;53.586;10.040;2023-02-17T17:00:15;9.50;1.00
7564;DHT22;3823;53.586;10.040;2023-02-17T17:02:42;9.50;1.00
7564;DHT22;3823;53.586;10.040;2023-02-17T17:05:10;9.50;1.00
7564;DHT22;3823;53.586;10.040;2023-02-17T17:07:37;9.40;1.00
7564;DHT22;3823;53.586;10.040;2023-02-17T17:10:04;9.40;1.00
7564;DHT22;3823;53.586;10.040;2023-02-17T17:12:30;9.40;1.00
7564;DHT22;3823;53.586;10.040;2023-02-17T17:14:56;9.40;1.00
7564;DHT22;3823;53.586;10.040;2023-02-17T17:17:21;9.30;1.00
7564;DHT22;3823;53.586;10.040;2023-02-17T17:19:47;9.30;1.00
7564;DHT22;3823;53.586;10.040;2023-02-17T17:22:12;9.30;1.00
7564;DHT22;3823;53.586;10.040;2023-02-17T17:24:39;9.30;1.00
7564;DHT22;3823;53.586;10.040;2023-02-17T17:27:05;9.30;1.00
7564;DHT22;3823;53.586;10.040;2023-02-17T17:29:30;9.30;1.00
7564;DHT22;3823;53.586;10.040;2023-02-17T17:31:56;9.20;1.00
7564;DHT22;3823;53.586;10.040;2023-02-17T17:34:21;9.20;1.00
7564;DHT22;3823;53.586;10.040;2023-02-17T17:36:47;9.20;1.00
7564;DHT22;3823;53.586;10.040;2023-02-17T17:39:18;9.20;1.00
7564;DHT22;3823;53.586;10.040;2023-02-17T17:41:44;9.20;1.00
7564;DHT22;3823;53.586;10.040;2023-02-17T17:44:10;9.20;1.00
7564;DHT22;3823;53.586;10.040;2023-02-17T17:46:37;9.10;1.00